sensor_id;sensor_type;location;lat;lon;timestamp;P1;durP1;ratioP1;P2;durP2;ratioP2
39778;SDS011;25454;49.878;8.618;2023-05-19T00:00:32;6.10;;;1.80;;
39778;SDS011;25454;49.878;8.618;2023-05-19T00:05:33;6.67;;;2.20;;
39778;SDS011;25454;49.878;8.618;2023-05-19T00:10:36;7.00;;;2.07;;
39778;SDS011;25454;49.878;8.618;2023-05-19T00:15:37;7.90;;;2.07;;
39778;SDS011;25454;49.878;8.618;2023-05-19T00:20:38;7.20;;;2.13;;
39778;SDS011;25454;49.878;8.618;2023-05-19T00:25:38;4.93;;;2.00;;
39778;SDS011;25454;49.878;8.618;2023-05-19T00:30:39;5.43;;;2.00;;
39778;SDS011;25454;49.878;8.618;2023-05-19T00:35:40;4.97;;;1.87;;
39778;SDS011;25454;49.878;8.618;2023-05-19T00:40:40;6.70;;;2.17;;
39778;SDS011;25454;49.878;8.618;2023-05-19T00:45:41;5.90;;;2.30;;
39778;SDS011;25454;49.878;8.618;2023-05-19T00:50:41;7.73;;;2.20;;
39778;SDS011;25454;49.878;8.618;2023-05-19T00:55:43;5.87;;;2.70;;
39778;SDS011;25454;49.878;8.618;2023-05-19T01:00:45;5.77;;;2.60;;
39778;SDS011;25454;49.878;8.618;2023-05-19T01:05:45;5.23;;;2.40;;
39778;SDS011;25454;49.878;8.618;2023-05-19T01:10:52;8.93;;;2.70;;
39778;SDS011;25454;49.878;8.618;2023-05-19T01:21:42;10.13;;;3.27;;
39778;SDS011;25454;49.878;8.618;2023-05-19T01:32:06;10.93;;;5.20;;
39778;SDS011;25454;49.878;8.618;2023-05-19T01:37:08;19.50;;;7.67;;
39778;SDS011;25454;49.878;8.618;2023-05-19T01:42:11;17.20;;;8.63;;
39778;SDS011;25454;49.878;8.618;2023-05-19T01:47:13;12.90;;;7.90;;
39778;SDS011;25454;49.878;8.618;2023-05-19T01:52:14;18.23;;;9.43;;
39778;SDS011;25454;49.878;8.618;2023-05-19T01:57:18;17.23;;;9.93;;
39778;SDS011;25454;49.878;8.618;2023-05-19T02:02:35;16.53;;;9.30;;
39778;SDS011;25454;49.878;8.618;2023-05-19T02:07:51;16.20;;;8.67;;
39778;SDS011;25454;49.878;8.618;2023-05-19T02:13:14;13.00;;;6.63;;
39778;SDS011;25454;49.878;8.618;2023-05-19T02:18:17;15.27;;;6.50;;
39778;SDS011;25454;49.878;8.618;2023-05-19T02:23:19;12.37;;;5.90;;
39778;SDS011;25454;49.878;8.618;2023-05-19T02:28:19;17.47;;;5.93;;
39778;SDS011;25454;49.878;8.618;2023-05-19T02:33:20;12.00;;;5.13;;
39778;SDS011;25454;49.878;8.618;2023-05-19T02:38:23;15.87;;;4.37;;
39778;SDS011;25454;49.878;8.618;2023-05-19T02:43:24;10.53;;;3.43;;
39778;SDS011;25454;49.878;8.618;2023-05-19T02:48:24;6.43;;;3.33;;
39778;SDS011;25454;49.878;8.618;2023-05-19T02:53:25;7.03;;;3.00;;
39778;SDS011;25454;49.878;8.618;2023-05-19T02:58:25;9.33;;;3.60;;
39778;SDS011;25454;49.878;8.618;2023-05-19T03:03:26;8.03;;;3.10;;
39778;SDS011;25454;49.878;8.618;2023-05-19T03:08:27;9.03;;;3.23;;
39778;SDS011;25454;49.878;8.618;2023-05-19T03:13:28;9.30;;;2.90;;
39778;SDS011;25454;49.878;8.618;2023-05-19T03:18:28;7.00;;;2.90;;
39778;SDS011;25454;49.878;8.618;2023-05-19T03:23:29;5.33;;;2.53;;
39778;SDS011;25454;49.878;8.618;2023-05-19T03:28:30;8.30;;;3.03;;
39778;SDS011;25454;49.878;8.618;2023-05-19T03:33:30;11.80;;;4.27;;
39778;SDS011;25454;49.878;8.618;2023-05-19T03:38:31;16.30;;;4.50;;
39778;SDS011;25454;49.878;8.618;2023-05-19T03:43:31;11.27;;;3.40;;
39778;SDS011;25454;49.878;8.618;2023-05-19T03:48:32;7.27;;;2.33;;
39778;SDS011;25454;49.878;8.618;2023-05-19T03:53:32;5.60;;;2.23;;
39778;SDS011;25454;49.878;8.618;2023-05-19T03:58:33;8.20;;;2.30;;
39778;SDS011;25454;49.878;8.618;2023-05-19T04:03:35;5.03;;;2.03;;
39778;SDS011;25454;49.878;8.618;2023-05-19T04:08:36;8.10;;;2.47;;
39778;SDS011;25454;49.878;8.618;2023-05-19T04:13:36;8.70;;;2.70;;
39778;SDS011;25454;49.878;8.618;2023-05-19T04:18:37;12.13;;;2.63;;
39778;SDS011;25454;49.878;8.618;2023-05-19T04:23:38;9.63;;;3.10;;
39778;SDS011;25454;49.878;8.618;2023-05-19T04:28:38;11.37;;;3.53;;
39778;SDS011;25454;49.878;8.618;2023-05-19T04:33:41;8.60;;;2.80;;
39778;SDS011;25454;49.878;8.618;2023-05-19T04:38:41;5.50;;;1.93;;
39778;SDS011;25454;49.878;8.618;2023-05-19T04:43:42;5.43;;;2.17;;
39778;SDS011;25454;49.878;8.618;2023-05-19T04:48:43;6.70;;;2.50;;
39778;SDS011;25454;49.878;8.618;2023-05-19T04:53:44;5.97;;;2.43;;
39778;SDS011;25454;49.878;8.618;2023-05-19T04:58:44;9.57;;;2.87;;
39778;SDS011;25454;49.878;8.618;2023-05-19T05:03:45;8.60;;;2.63;;
39778;SDS011;25454;49.878;8.618;2023-05-19T05:08:45;7.57;;;2.40;;
39778;SDS011;25454;49.878;8.618;2023-05-19T05:13:46;4.80;;;2.43;;
39778;SDS011;25454;49.878;8.618;2023-05-19T05:18:47;5.97;;;2.63;;
39778;SDS011;25454;49.878;8.618;2023-05-19T05:23:49;8.67;;;3.00;;
39778;SDS011;25454;49.878;8.618;2023-05-19T05:28:50;4.63;;;2.03;;
39778;SDS011;25454;49.878;8.618;2023-05-19T05:33:50;8.53;;;2.53;;
39778;SDS011;25454;49.878;8.618;2023-05-19T05:38:51;7.63;;;2.50;;
39778;SDS011;25454;49.878;8.618;2023-05-19T05:43:52;7.83;;;3.17;;
39778;SDS011;25454;49.878;8.618;2023-05-19T05:48:52;7.57;;;2.60;;
39778;SDS011;25454;49.878;8.618;2023-05-19T05:53:53;12.40;;;2.87;;
39778;SDS011;25454;49.878;8.618;2023-05-19T05:58:54;7.00;;;3.40;;
39778;SDS011;25454;49.878;8.618;2023-05-19T06:03:55;7.90;;;2.40;;
39778;SDS011;25454;49.878;8.618;2023-05-19T06:08:56;7.67;;;2.50;;
39778;SDS011;25454;49.878;8.618;2023-05-19T06:13:57;4.47;;;1.90;;
39778;SDS011;25454;49.878;8.618;2023-05-19T06:19:00;10.17;;;2.13;;
39778;SDS011;25454;49.878;8.618;2023-05-19T06:24:01;7.93;;;2.13;;
39778;SDS011;25454;49.878;8.618;2023-05-19T06:29:02;5.97;;;1.80;;
39778;SDS011;25454;49.878;8.618;2023-05-19T06:34:02;7.97;;;2.60;;
39778;SDS011;25454;49.878;8.618;2023-05-19T06:39:03;6.87;;;2.53;;
39778;SDS011;25454;49.878;8.618;2023-05-19T06:44:05;4.80;;;2.30;;
39778;SDS011;25454;49.878;8.618;2023-05-19T06:49:06;8.40;;;2.20;;
39778;SDS011;25454;49.878;8.618;2023-05-19T06:54:07;7.10;;;2.10;;
39778;SDS011;25454;49.878;8.618;2023-05-19T06:59:09;5.07;;;2.27;;
39778;SDS011;25454;49.878;8.618;2023-05-19T07:04:10;5.10;;;1.90;;
39778;SDS011;25454;49.878;8.618;2023-05-19T07:09:11;5.60;;;1.90;;
39778;SDS011;25454;49.878;8.618;2023-05-19T07:14:11;5.07;;;2.30;;
39778;SDS011;25454;49.878;8.618;2023-05-19T07:19:12;6.90;;;2.00;;
39778;SDS011;25454;49.878;8.618;2023-05-19T07:24:18;7.77;;;2.30;;
39778;SDS011;25454;49.878;8.618;2023-05-19T07:29:20;9.97;;;2.30;;
39778;SDS011;25454;49.878;8.618;2023-05-19T07:34:20;6.07;;;2.23;;
39778;SDS011;25454;49.878;8.618;2023-05-19T07:39:21;4.67;;;2.20;;
39778;SDS011;25454;49.878;8.618;2023-05-19T07:44:24;5.37;;;2.23;;
39778;SDS011;25454;49.878;8.618;2023-05-19T07:49:30;5.83;;;2.43;;
39778;SDS011;25454;49.878;8.618;2023-05-19T07:54:30;6.20;;;2.23;;
39778;SDS011;25454;49.878;8.618;2023-05-19T07:59:31;6.87;;;2.30;;
39778;SDS011;25454;49.878;8.618;2023-05-19T08:04:31;6.80;;;2.37;;
39778;SDS011;25454;49.878;8.618;2023-05-19T08:09:32;6.47;;;2.10;;
39778;SDS011;25454;49.878;8.618;2023-05-19T08:14:33;6.37;;;2.23;;
39778;SDS011;25454;49.878;8.618;2023-05-19T08:19:33;3.73;;;2.07;;
39778;SDS011;25454;49.878;8.618;2023-05-19T08:24:34;5.97;;;2.80;;
39778;SDS011;25454;49.878;8.618;2023-05-19T08:29:35;8.30;;;2.53;;
39778;SDS011;25454;49.878;8.618;2023-05-19T08:34:37;9.23;;;2.50;;
39778;SDS011;25454;49.878;8.618;2023-05-19T08:39:37;4.53;;;2.50;;
39778;SDS011;25454;49.878;8.618;2023-05-19T08:44:38;7.17;;;2.47;;
39778;SDS011;25454;49.878;8.618;2023-05-19T08:49:42;6.27;;;2.53;;
39778;SDS011;25454;49.878;8.618;2023-05-19T08:54:52;10.23;;;2.27;;
39778;SDS011;25454;49.878;8.618;2023-05-19T09:00:03;3.70;;;1.93;;
39778;SDS011;25454;49.878;8.618;2023-05-19T09:05:14;8.97;;;2.40;;
39778;SDS011;25454;49.878;8.618;2023-05-19T09:10:16;4.30;;;2.27;;
39778;SDS011;25454;49.878;8.618;2023-05-19T09:15:16;9.63;;;2.77;;
39778;SDS011;25454;49.878;8.618;2023-05-19T09:20:18;3.47;;;2.00;;
39778;SDS011;25454;49.878;8.618;2023-05-19T09:25:22;4.23;;;1.90;;
39778;SDS011;25454;49.878;8.618;2023-05-19T09:30:23;5.63;;;2.40;;
39778;SDS011;25454;49.878;8.618;2023-05-19T09:35:23;4.80;;;2.30;;
39778;SDS011;25454;49.878;8.618;2023-05-19T09:40:26;4.00;;;2.30;;
39778;SDS011;25454;49.878;8.618;2023-05-19T09:45:27;8.10;;;2.20;;
39778;SDS011;25454;49.878;8.618;2023-05-19T09:50:28;5.60;;;2.60;;
39778;SDS011;25454;49.878;8.618;2023-05-19T09:55:29;8.30;;;2.40;;
39778;SDS011;25454;49.878;8.618;2023-05-19T10:00:31;5.70;;;2.33;;
39778;SDS011;25454;49.878;8.618;2023-05-19T10:05:33;5.83;;;2.10;;
39778;SDS011;25454;49.878;8.618;2023-05-19T10:10:38;6.70;;;2.40;;
39778;SDS011;25454;49.878;8.618;2023-05-19T10:15:39;4.90;;;2.57;;
39778;SDS011;25454;49.878;8.618;2023-05-19T10:20:41;6.63;;;2.00;;
39778;SDS011;25454;49.878;8.618;2023-05-19T10:25:43;5.57;;;2.20;;
39778;SDS011;25454;49.878;8.618;2023-05-19T10:30:45;3.37;;;2.10;;
39778;SDS011;25454;49.878;8.618;2023-05-19T10:46:35;5.03;;;1.90;;
39778;SDS011;25454;49.878;8.618;2023-05-19T10:51:38;9.37;;;2.10;;
39778;SDS011;25454;49.878;8.618;2023-05-19T10:56:39;6.57;;;2.10;;
39778;SDS011;25454;49.878;8.618;2023-05-19T11:01:44;5.87;;;2.10;;
39778;SDS011;25454;49.878;8.618;2023-05-19T11:06:49;4.97;;;2.10;;
39778;SDS011;25454;49.878;8.618;2023-05-19T11:11:51;5.13;;;2.23;;
39778;SDS011;25454;49.878;8.618;2023-05-19T11:16:58;5.00;;;2.20;;
39778;SDS011;25454;49.878;8.618;2023-05-19T11:27:23;6.07;;;2.30;;
39778;SDS011;25454;49.878;8.618;2023-05-19T11:32:28;4.37;;;2.10;;
39778;SDS011;25454;49.878;8.618;2023-05-19T11:37:31;6.07;;;2.03;;
39778;SDS011;25454;49.878;8.618;2023-05-19T11:42:32;5.83;;;2.00;;
39778;SDS011;25454;49.878;8.618;2023-05-19T11:47:33;4.47;;;1.90;;
39778;SDS011;25454;49.878;8.618;2023-05-19T11:52:34;4.90;;;2.03;;
39778;SDS011;25454;49.878;8.618;2023-05-19T11:57:35;5.00;;;2.30;;
39778;SDS011;25454;49.878;8.618;2023-05-19T12:02:35;7.53;;;2.10;;
39778;SDS011;25454;49.878;8.618;2023-05-19T12:07:36;4.07;;;1.97;;
39778;SDS011;25454;49.878;8.618;2023-05-19T12:12:38;4.37;;;1.83;;
39778;SDS011;25454;49.878;8.618;2023-05-19T12:17:39;4.77;;;1.83;;
39778;SDS011;25454;49.878;8.618;2023-05-19T12:22:40;4.30;;;2.07;;
39778;SDS011;25454;49.878;8.618;2023-05-19T12:27:41;4.27;;;1.93;;
39778;SDS011;25454;49.878;8.618;2023-05-19T12:32:42;3.43;;;1.90;;
39778;SDS011;25454;49.878;8.618;2023-05-19T12:37:45;3.93;;;1.47;;
39778;SDS011;25454;49.878;8.618;2023-05-19T12:42:48;7.70;;;1.87;;
39778;SDS011;25454;49.878;8.618;2023-05-19T12:47:52;3.93;;;1.50;;
39778;SDS011;25454;49.878;8.618;2023-05-19T12:52:53;3.47;;;1.63;;
39778;SDS011;25454;49.878;8.618;2023-05-19T12:57:53;3.13;;;1.50;;
39778;SDS011;25454;49.878;8.618;2023-05-19T13:03:02;3.53;;;1.50;;
39778;SDS011;25454;49.878;8.618;2023-05-19T13:08:08;4.33;;;1.50;;
39778;SDS011;25454;49.878;8.618;2023-05-19T13:13:10;2.37;;;1.43;;
39778;SDS011;25454;49.878;8.618;2023-05-19T13:18:14;3.57;;;1.60;;
39778;SDS011;25454;49.878;8.618;2023-05-19T13:23:16;5.13;;;1.63;;
39778;SDS011;25454;49.878;8.618;2023-05-19T13:28:16;3.27;;;1.50;;
39778;SDS011;25454;49.878;8.618;2023-05-19T13:33:17;3.27;;;1.80;;
39778;SDS011;25454;49.878;8.618;2023-05-19T13:38:20;2.73;;;1.50;;
39778;SDS011;25454;49.878;8.618;2023-05-19T13:43:21;3.70;;;1.60;;
39778;SDS011;25454;49.878;8.618;2023-05-19T13:48:24;6.80;;;1.80;;
39778;SDS011;25454;49.878;8.618;2023-05-19T13:53:25;4.33;;;1.70;;
39778;SDS011;25454;49.878;8.618;2023-05-19T13:58:26;5.73;;;1.47;;
39778;SDS011;25454;49.878;8.618;2023-05-19T14:03:28;7.20;;;1.60;;
39778;SDS011;25454;49.878;8.618;2023-05-19T14:08:32;3.40;;;1.67;;
39778;SDS011;25454;49.878;8.618;2023-05-19T14:13:32;3.00;;;1.70;;
39778;SDS011;25454;49.878;8.618;2023-05-19T14:18:33;2.30;;;1.47;;
39778;SDS011;25454;49.878;8.618;2023-05-19T14:23:33;3.07;;;1.40;;
39778;SDS011;25454;49.878;8.618;2023-05-19T14:28:34;2.17;;;1.50;;
39778;SDS011;25454;49.878;8.618;2023-05-19T14:33:35;4.00;;;1.73;;
39778;SDS011;25454;49.878;8.618;2023-05-19T14:38:35;3.77;;;1.47;;
39778;SDS011;25454;49.878;8.618;2023-05-19T14:43:36;3.33;;;1.47;;
39778;SDS011;25454;49.878;8.618;2023-05-19T14:48:36;4.63;;;1.50;;
39778;SDS011;25454;49.878;8.618;2023-05-19T14:53:37;7.47;;;1.93;;
39778;SDS011;25454;49.878;8.618;2023-05-19T14:58:41;6.30;;;1.67;;
39778;SDS011;25454;49.878;8.618;2023-05-19T15:03:41;4.90;;;1.70;;
39778;SDS011;25454;49.878;8.618;2023-05-19T15:08:42;4.97;;;1.70;;
39778;SDS011;25454;49.878;8.618;2023-05-19T15:13:42;4.07;;;1.80;;
39778;SDS011;25454;49.878;8.618;2023-05-19T15:18:43;3.77;;;1.63;;
39778;SDS011;25454;49.878;8.618;2023-05-19T15:23:44;2.70;;;1.80;;
39778;SDS011;25454;49.878;8.618;2023-05-19T15:28:44;3.97;;;1.80;;
39778;SDS011;25454;49.878;8.618;2023-05-19T15:33:45;3.77;;;1.87;;
39778;SDS011;25454;49.878;8.618;2023-05-19T15:38:47;4.20;;;1.87;;
39778;SDS011;25454;49.878;8.618;2023-05-19T15:43:47;3.43;;;1.80;;
39778;SDS011;25454;49.878;8.618;2023-05-19T15:48:48;3.40;;;1.87;;
39778;SDS011;25454;49.878;8.618;2023-05-19T15:53:48;2.83;;;1.70;;
39778;SDS011;25454;49.878;8.618;2023-05-19T15:58:49;2.37;;;1.87;;
39778;SDS011;25454;49.878;8.618;2023-05-19T16:03:50;3.90;;;1.97;;
39778;SDS011;25454;49.878;8.618;2023-05-19T16:08:50;7.00;;;1.97;;
39778;SDS011;25454;49.878;8.618;2023-05-19T16:13:51;3.33;;;1.80;;
39778;SDS011;25454;49.878;8.618;2023-05-19T16:18:51;2.57;;;1.83;;
39778;SDS011;25454;49.878;8.618;2023-05-19T16:23:52;3.37;;;1.90;;
39778;SDS011;25454;49.878;8.618;2023-05-19T16:28:53;4.00;;;2.03;;
39778;SDS011;25454;49.878;8.618;2023-05-19T16:33:54;4.80;;;2.23;;
39778;SDS011;25454;49.878;8.618;2023-05-19T16:38:57;3.17;;;1.77;;
39778;SDS011;25454;49.878;8.618;2023-05-19T16:43:57;4.50;;;2.00;;
39778;SDS011;25454;49.878;8.618;2023-05-19T16:48:58;2.53;;;1.67;;
39778;SDS011;25454;49.878;8.618;2023-05-19T16:54:02;4.93;;;2.20;;
39778;SDS011;25454;49.878;8.618;2023-05-19T16:59:03;5.17;;;2.50;;
39778;SDS011;25454;49.878;8.618;2023-05-19T17:04:03;6.20;;;2.10;;
39778;SDS011;25454;49.878;8.618;2023-05-19T17:09:04;4.27;;;2.37;;
39778;SDS011;25454;49.878;8.618;2023-05-19T17:14:05;5.20;;;2.03;;
39778;SDS011;25454;49.878;8.618;2023-05-19T17:19:08;6.83;;;2.40;;
39778;SDS011;25454;49.878;8.618;2023-05-19T17:24:12;3.60;;;1.60;;
39778;SDS011;25454;49.878;8.618;2023-05-19T17:29:12;6.07;;;2.10;;
39778;SDS011;25454;49.878;8.618;2023-05-19T17:34:13;3.37;;;1.97;;
39778;SDS011;25454;49.878;8.618;2023-05-19T17:39:14;5.80;;;2.10;;
39778;SDS011;25454;49.878;8.618;2023-05-19T17:44:15;5.73;;;1.87;;
39778;SDS011;25454;49.878;8.618;2023-05-19T17:49:15;5.57;;;1.93;;
39778;SDS011;25454;49.878;8.618;2023-05-19T17:54:16;5.13;;;2.13;;
39778;SDS011;25454;49.878;8.618;2023-05-19T17:59:17;5.13;;;1.73;;
39778;SDS011;25454;49.878;8.618;2023-05-19T18:04:18;3.17;;;1.70;;
39778;SDS011;25454;49.878;8.618;2023-05-19T18:09:19;4.43;;;2.03;;
39778;SDS011;25454;49.878;8.618;2023-05-19T18:14:22;4.37;;;1.97;;
39778;SDS011;25454;49.878;8.618;2023-05-19T18:19:22;2.57;;;1.90;;
39778;SDS011;25454;49.878;8.618;2023-05-19T18:24:23;5.40;;;1.90;;
39778;SDS011;25454;49.878;8.618;2023-05-19T18:29:23;4.30;;;1.90;;
39778;SDS011;25454;49.878;8.618;2023-05-19T18:34:24;4.50;;;1.90;;
39778;SDS011;25454;49.878;8.618;2023-05-19T18:39:26;2.67;;;2.07;;
39778;SDS011;25454;49.878;8.618;2023-05-19T18:44:27;1.83;;;1.73;;
39778;SDS011;25454;49.878;8.618;2023-05-19T18:49:28;4.43;;;1.43;;
39778;SDS011;25454;49.878;8.618;2023-05-19T18:54:29;3.50;;;2.00;;
39778;SDS011;25454;49.878;8.618;2023-05-19T18:59:31;2.40;;;1.70;;
39778;SDS011;25454;49.878;8.618;2023-05-19T19:04:32;3.90;;;1.50;;
39778;SDS011;25454;49.878;8.618;2023-05-19T19:09:32;1.60;;;1.47;;
39778;SDS011;25454;49.878;8.618;2023-05-19T19:14:33;2.87;;;1.90;;
39778;SDS011;25454;49.878;8.618;2023-05-19T19:19:33;3.37;;;1.63;;
39778;SDS011;25454;49.878;8.618;2023-05-19T19:24:34;6.80;;;1.80;;
39778;SDS011;25454;49.878;8.618;2023-05-19T19:29:35;1.70;;;1.60;;
39778;SDS011;25454;49.878;8.618;2023-05-19T19:34:35;4.20;;;1.67;;
39778;SDS011;25454;49.878;8.618;2023-05-19T19:39:36;7.80;;;2.40;;
39778;SDS011;25454;49.878;8.618;2023-05-19T19:44:38;3.03;;;1.87;;
39778;SDS011;25454;49.878;8.618;2023-05-19T19:49:38;3.17;;;1.60;;
39778;SDS011;25454;49.878;8.618;2023-05-19T19:54:39;3.73;;;1.60;;
39778;SDS011;25454;49.878;8.618;2023-05-19T19:59:40;4.00;;;1.70;;
39778;SDS011;25454;49.878;8.618;2023-05-19T20:04:40;3.77;;;1.60;;
39778;SDS011;25454;49.878;8.618;2023-05-19T20:09:41;4.10;;;1.70;;
39778;SDS011;25454;49.878;8.618;2023-05-19T20:14:42;2.70;;;1.57;;
39778;SDS011;25454;49.878;8.618;2023-05-19T20:19:42;4.40;;;1.80;;
39778;SDS011;25454;49.878;8.618;2023-05-19T20:24:43;4.37;;;1.60;;
39778;SDS011;25454;49.878;8.618;2023-05-19T20:29:43;2.30;;;1.80;;
39778;SDS011;25454;49.878;8.618;2023-05-19T20:34:45;3.20;;;1.90;;
39778;SDS011;25454;49.878;8.618;2023-05-19T20:39:46;4.07;;;1.83;;
39778;SDS011;25454;49.878;8.618;2023-05-19T20:44:47;3.60;;;1.90;;
39778;SDS011;25454;49.878;8.618;2023-05-19T20:49:47;4.80;;;1.70;;
39778;SDS011;25454;49.878;8.618;2023-05-19T20:54:48;1.87;;;1.70;;
39778;SDS011;25454;49.878;8.618;2023-05-19T20:59:48;2.50;;;1.90;;
39778;SDS011;25454;49.878;8.618;2023-05-19T21:04:49;3.53;;;1.63;;
39778;SDS011;25454;49.878;8.618;2023-05-19T21:09:50;3.80;;;1.70;;
39778;SDS011;25454;49.878;8.618;2023-05-19T21:14:52;4.67;;;1.83;;
39778;SDS011;25454;49.878;8.618;2023-05-19T21:19:53;2.33;;;1.87;;
39778;SDS011;25454;49.878;8.618;2023-05-19T21:24:56;2.77;;;2.10;;
39778;SDS011;25454;49.878;8.618;2023-05-19T21:29:57;5.03;;;2.20;;
39778;SDS011;25454;49.878;8.618;2023-05-19T21:34:57;2.50;;;2.07;;
39778;SDS011;25454;49.878;8.618;2023-05-19T21:39:58;4.87;;;1.90;;
39778;SDS011;25454;49.878;8.618;2023-05-19T21:45:02;4.77;;;2.13;;
39778;SDS011;25454;49.878;8.618;2023-05-19T21:50:03;5.57;;;2.30;;
39778;SDS011;25454;49.878;8.618;2023-05-19T21:55:05;2.97;;;1.90;;
39778;SDS011;25454;49.878;8.618;2023-05-19T22:00:06;2.30;;;1.73;;
39778;SDS011;25454;49.878;8.618;2023-05-19T22:05:11;4.07;;;2.23;;
39778;SDS011;25454;49.878;8.618;2023-05-19T22:10:12;2.90;;;2.00;;
39778;SDS011;25454;49.878;8.618;2023-05-19T22:15:13;7.10;;;2.37;;
39778;SDS011;25454;49.878;8.618;2023-05-19T22:20:14;5.33;;;1.90;;
39778;SDS011;25454;49.878;8.618;2023-05-19T22:25:15;4.60;;;2.20;;
39778;SDS011;25454;49.878;8.618;2023-05-19T22:30:16;5.30;;;1.93;;
39778;SDS011;25454;49.878;8.618;2023-05-19T22:35:16;5.87;;;2.43;;
39778;SDS011;25454;49.878;8.618;2023-05-19T22:40:18;2.63;;;2.23;;
39778;SDS011;25454;49.878;8.618;2023-05-19T22:45:21;4.57;;;2.10;;
39778;SDS011;25454;49.878;8.618;2023-05-19T22:50:22;3.80;;;2.50;;
39778;SDS011;25454;49.878;8.618;2023-05-19T22:55:22;4.37;;;2.40;;
39778;SDS011;25454;49.878;8.618;2023-05-19T23:00:23;5.83;;;2.47;;
39778;SDS011;25454;49.878;8.618;2023-05-19T23:05:24;2.50;;;2.30;;
39778;SDS011;25454;49.878;8.618;2023-05-19T23:10:24;6.33;;;2.57;;
39778;SDS011;25454;49.878;8.618;2023-05-19T23:15:25;3.93;;;2.30;;
39778;SDS011;25454;49.878;8.618;2023-05-19T23:20:25;4.47;;;2.10;;
39778;SDS011;25454;49.878;8.618;2023-05-19T23:25:26;2.77;;;2.43;;
39778;SDS011;25454;49.878;8.618;2023-05-19T23:30:27;3.77;;;2.13;;
39778;SDS011;25454;49.878;8.618;2023-05-19T23:35:29;4.13;;;2.10;;
39778;SDS011;25454;49.878;8.618;2023-05-19T23:40:29;3.87;;;2.30;;
39778;SDS011;25454;49.878;8.618;2023-05-19T23:45:30;4.17;;;2.40;;
39778;SDS011;25454;49.878;8.618;2023-05-19T23:50:31;7.33;;;2.37;;
39778;SDS011;25454;49.878;8.618;2023-05-19T23:55:33;3.07;;;2.03;;
